createdAt,value
2019-04-04T00:00:08.198Z,10.07
2019-04-04T00:02:40.730Z,10.23
2019-04-04T00:05:13.099Z,10.00
2019-04-04T00:07:45.349Z,9.63
2019-04-04T00:10:17.520Z,10.00
2019-04-04T00:12:49.877Z,9.87
2019-04-04T00:15:22.139Z,9.77
2019-04-04T00:17:54.553Z,9.10
2019-04-04T00:20:26.831Z,10.07
2019-04-04T00:23:00.052Z,9.73
2019-04-04T00:25:32.864Z,9.10
2019-04-04T00:28:05.162Z,10.17
2019-04-04T00:30:37.697Z,9.97
2019-04-04T00:33:09.911Z,10.47
2019-04-04T00:35:42.157Z,9.33
2019-04-04T00:38:14.441Z,8.93
2019-04-04T00:40:46.701Z,8.23
2019-04-04T00:43:21.093Z,9.47
2019-04-04T00:45:52.977Z,9.80
2019-04-04T00:48:25.199Z,8.87
2019-04-04T00:50:57.420Z,8.93
2019-04-04T00:53:29.680Z,9.47
2019-04-04T00:56:01.874Z,8.73
2019-04-04T00:58:35.209Z,9.13
2019-04-04T01:01:07.447Z,9.77
2019-04-04T01:03:40.019Z,8.43
2019-04-04T01:06:14.474Z,9.17
2019-04-04T01:08:48.252Z,9.07
2019-04-04T01:11:21.002Z,9.27
2019-04-04T01:13:53.401Z,7.83
2019-04-04T01:16:25.651Z,8.27
2019-04-04T01:18:57.890Z,8.97
2019-04-04T01:21:30.131Z,10.00
2019-04-04T01:24:02.405Z,8.40
2019-04-04T01:26:35.736Z,9.73
2019-04-04T01:29:10.149Z,8.63
2019-04-04T01:31:42.181Z,8.70
2019-04-04T01:34:16.435Z,8.23
2019-04-04T01:36:48.723Z,8.80
2019-04-04T01:39:20.932Z,8.77
2019-04-04T01:41:53.166Z,9.07
2019-04-04T01:44:25.454Z,8.93
2019-04-04T01:46:57.680Z,9.83
2019-04-04T01:49:29.947Z,9.67
2019-04-04T01:52:02.254Z,9.70
2019-04-04T01:54:34.628Z,10.70
2019-04-04T01:57:09.182Z,10.03
2019-04-04T01:59:43.933Z,9.53
2019-04-04T02:02:18.466Z,9.97
2019-04-04T02:04:50.461Z,10.40
2019-04-04T02:07:22.747Z,10.80
2019-04-04T02:09:54.783Z,9.63
2019-04-04T02:12:27.027Z,9.67
2019-04-04T02:14:59.219Z,9.73
2019-04-04T02:17:31.466Z,9.70
2019-04-04T02:20:03.883Z,8.50
2019-04-04T02:22:36.282Z,11.00
2019-04-04T02:25:08.526Z,9.17
2019-04-04T02:27:40.833Z,9.30
2019-04-04T02:30:16.004Z,10.13
2019-04-04T02:32:47.147Z,9.73
2019-04-04T02:35:19.353Z,10.00
2019-04-04T02:37:55.060Z,10.43
2019-04-04T02:40:25.581Z,9.57
2019-04-04T02:42:58.063Z,9.07
2019-04-04T02:45:30.293Z,10.10
2019-04-04T02:48:02.663Z,9.17
2019-04-04T02:50:35.914Z,9.13
2019-04-04T02:53:08.306Z,9.63
2019-04-04T02:55:40.509Z,9.57
2019-04-04T02:58:14.995Z,9.20
2019-04-04T03:00:46.702Z,9.63
2019-04-04T03:03:19.030Z,9.73
2019-04-04T03:05:52.317Z,9.03
2019-04-04T03:08:24.912Z,9.37
2019-04-04T03:10:57.332Z,9.50
2019-04-04T03:13:32.175Z,8.90
2019-04-04T03:16:03.542Z,9.20
2019-04-04T03:18:37.322Z,9.60
2019-04-04T03:21:09.750Z,9.40
2019-04-04T03:23:42.036Z,8.73
2019-04-04T03:26:14.352Z,9.03
2019-04-04T03:28:48.213Z,8.70
2019-04-04T03:31:20.538Z,8.93
2019-04-04T03:33:52.820Z,9.03
2019-04-04T03:36:25.305Z,8.93
2019-04-04T03:38:59.806Z,8.60
2019-04-04T03:41:35.785Z,9.37
2019-04-04T03:44:06.368Z,9.60
2019-04-04T03:46:39.198Z,10.23
2019-04-04T03:49:11.516Z,10.20
2019-04-04T03:51:43.841Z,9.50
2019-04-04T03:54:16.136Z,9.43
2019-04-04T03:56:48.321Z,10.20
2019-04-04T03:59:20.610Z,10.13
2019-04-04T04:01:52.819Z,10.93
2019-04-04T04:04:28.303Z,8.37
2019-04-04T04:06:59.220Z,11.07
2019-04-04T04:09:31.454Z,11.27
2019-04-04T04:12:03.658Z,10.60
2019-04-04T04:14:37.080Z,10.87
2019-04-04T04:17:11.587Z,10.87
2019-04-04T04:19:43.271Z,11.00
2019-04-04T04:22:18.047Z,11.17
2019-04-04T04:24:49.447Z,10.77
2019-04-04T04:27:21.692Z,11.80
2019-04-04T04:29:53.920Z,11.30
2019-04-04T04:32:28.477Z,11.13
2019-04-04T04:35:00.746Z,10.53
2019-04-04T04:37:32.952Z,12.53
2019-04-04T04:40:05.280Z,11.90
2019-04-04T04:42:37.494Z,11.10
2019-04-04T04:45:12.153Z,11.10
2019-04-04T04:47:43.982Z,12.27
2019-04-04T04:50:16.436Z,12.13
2019-04-04T04:52:48.710Z,12.07
2019-04-04T04:55:20.955Z,11.80
2019-04-04T04:57:56.089Z,13.30
2019-04-04T05:00:27.871Z,12.03
2019-04-04T05:03:00.506Z,13.33
2019-04-04T05:05:32.748Z,13.27
2019-04-04T05:08:04.995Z,12.10
2019-04-04T05:10:37.199Z,12.90
2019-04-04T05:13:09.526Z,13.03
2019-04-04T05:15:41.725Z,12.87
2019-04-04T05:18:16.416Z,12.37
2019-04-04T05:20:48.113Z,12.57
2019-04-04T05:23:20.419Z,11.83
2019-04-04T05:25:54.313Z,12.13
2019-04-04T05:28:26.787Z,13.07
2019-04-04T05:30:59.209Z,12.07
2019-04-04T05:33:31.756Z,12.73
2019-04-04T05:36:05.271Z,12.57
2019-04-04T05:38:37.962Z,11.53
2019-04-04T05:41:10.157Z,11.80
2019-04-04T05:43:42.471Z,11.63
2019-04-04T05:46:14.747Z,11.97
2019-04-04T05:48:47.227Z,12.13
2019-04-04T05:51:19.489Z,12.57
2019-04-04T05:53:51.892Z,10.87
2019-04-04T05:56:24.510Z,11.43
2019-04-04T05:58:57.925Z,11.90
2019-04-04T06:01:30.527Z,11.73
2019-04-04T06:04:04.118Z,12.07
2019-04-04T06:06:36.781Z,10.53
2019-04-04T06:09:09.034Z,11.53
2019-04-04T06:11:41.358Z,11.17
2019-04-04T06:14:13.631Z,11.17
2019-04-04T06:16:46.000Z,10.80
2019-04-04T06:19:18.466Z,11.27
2019-04-04T06:21:50.805Z,10.30
2019-04-04T06:24:23.379Z,11.43
2019-04-04T06:26:57.846Z,11.10
2019-04-04T06:29:30.012Z,10.93
2019-04-04T06:32:02.252Z,10.60
2019-04-04T06:34:34.541Z,10.73
2019-04-04T06:37:06.941Z,10.77
2019-04-04T06:39:39.296Z,10.73
2019-04-04T06:42:11.946Z,10.50
2019-04-04T06:44:44.486Z,9.97
2019-04-04T06:47:16.760Z,10.70
2019-04-04T06:49:49.357Z,10.43
2019-04-04T06:52:23.411Z,10.20
2019-04-04T06:54:57.389Z,10.87
2019-04-04T06:57:30.240Z,9.63
2019-04-04T07:00:02.704Z,10.20
2019-04-04T07:02:35.369Z,9.13
2019-04-04T07:05:10.448Z,9.83
2019-04-04T07:07:43.873Z,9.87
2019-04-04T07:10:15.738Z,9.27
2019-04-04T07:12:49.019Z,10.03
2019-04-04T07:15:21.339Z,10.00
2019-04-04T07:17:53.735Z,9.57
2019-04-04T07:20:28.315Z,9.43
2019-04-04T07:22:59.959Z,9.73
2019-04-04T07:25:32.333Z,9.67
2019-04-04T07:28:04.814Z,9.13
2019-04-04T07:30:37.466Z,8.77
2019-04-04T07:33:11.845Z,8.90
2019-04-04T07:35:43.790Z,8.70
2019-04-04T07:38:16.061Z,7.97
2019-04-04T07:40:49.743Z,9.07
2019-04-04T07:43:22.008Z,9.37
2019-04-04T07:45:59.664Z,8.87
2019-04-04T07:48:29.502Z,8.63
2019-04-04T07:51:01.893Z,10.07
2019-04-04T07:53:36.316Z,8.90
2019-04-04T07:56:08.243Z,9.80
2019-04-04T07:58:40.356Z,9.20
2019-04-04T08:01:12.610Z,8.83
2019-04-04T08:03:44.964Z,8.83
2019-04-04T08:06:17.670Z,8.20
2019-04-04T08:08:50.058Z,8.27
2019-04-04T08:11:22.410Z,8.37
2019-04-04T08:13:55.685Z,8.43
2019-04-04T08:16:28.038Z,8.07
2019-04-04T08:19:00.378Z,8.47
2019-04-04T08:21:32.697Z,8.10
2019-04-04T08:24:04.957Z,8.50
2019-04-04T08:26:37.159Z,8.87
2019-04-04T08:29:09.493Z,8.90
2019-04-04T08:31:41.783Z,9.27
2019-04-04T08:34:16.508Z,9.37
2019-04-04T08:36:48.782Z,8.90
2019-04-04T08:39:21.025Z,9.00
2019-04-04T08:41:53.322Z,8.97
2019-04-04T08:44:25.600Z,9.37
2019-04-04T08:46:57.813Z,9.37
2019-04-04T08:49:30.129Z,8.43
2019-04-04T08:52:02.376Z,9.20
2019-04-04T08:54:34.603Z,8.57
2019-04-04T08:57:07.065Z,10.43
2019-04-04T08:59:39.477Z,8.63
2019-04-04T09:02:11.750Z,8.60
2019-04-04T09:04:44.036Z,8.97
2019-04-04T09:07:16.269Z,9.27
2019-04-04T09:09:48.664Z,8.60
2019-04-04T09:12:22.129Z,8.43
2019-04-04T09:14:54.687Z,8.77
2019-04-04T09:17:26.939Z,9.03
2019-04-04T09:19:59.327Z,8.37
2019-04-04T09:22:31.619Z,8.60
2019-04-04T09:25:04.171Z,9.07
2019-04-04T09:27:36.549Z,8.93
2019-04-04T09:30:08.888Z,9.10
2019-04-04T09:32:42.326Z,8.87
2019-04-04T09:35:15.432Z,9.33
2019-04-04T09:37:52.993Z,9.20
2019-04-04T09:40:28.016Z,10.10
2019-04-04T09:43:00.601Z,10.17
2019-04-04T09:45:32.832Z,9.50
2019-04-04T09:48:05.390Z,9.60
2019-04-04T09:50:39.229Z,9.20
2019-04-04T09:53:11.538Z,9.03
2019-04-04T09:55:43.776Z,8.50
2019-04-04T09:58:16.096Z,8.07
2019-04-04T10:00:48.585Z,8.20
2019-04-04T10:03:20.938Z,8.07
2019-04-04T10:05:53.240Z,7.70
2019-04-04T10:08:25.690Z,7.87
2019-04-04T10:10:57.884Z,7.90
2019-04-04T10:13:30.176Z,8.03
2019-04-04T10:16:02.447Z,7.87
2019-04-04T10:18:34.951Z,7.17
2019-04-04T10:21:12.030Z,7.07
2019-04-04T10:23:41.201Z,7.47
2019-04-04T10:26:13.522Z,7.83
2019-04-04T10:28:45.806Z,7.77
2019-04-04T10:31:18.172Z,7.10
2019-04-04T10:33:50.441Z,7.73
2019-04-04T10:36:22.689Z,7.40
2019-04-04T10:38:54.979Z,8.20
2019-04-04T10:41:27.247Z,7.77
2019-04-04T10:43:59.472Z,7.40
2019-04-04T10:46:31.769Z,8.20
2019-04-04T10:49:04.102Z,7.67
2019-04-04T10:51:36.364Z,7.77
2019-04-04T10:54:09.662Z,8.33
2019-04-04T10:56:42.184Z,8.27
2019-04-04T10:59:15.556Z,7.77
2019-04-04T11:01:47.787Z,7.47
2019-04-04T11:04:20.077Z,7.53
2019-04-04T11:06:52.419Z,7.67
2019-04-04T11:09:24.891Z,7.67
2019-04-04T11:11:57.160Z,7.23
2019-04-04T11:14:29.474Z,7.27
2019-04-04T11:17:01.827Z,7.43
2019-04-04T11:19:34.490Z,7.63
2019-04-04T11:22:07.786Z,7.57
2019-04-04T11:24:40.585Z,6.33
2019-04-04T11:27:12.937Z,7.03
2019-04-04T11:29:45.148Z,7.20
2019-04-04T11:32:17.416Z,6.60
2019-04-04T11:34:53.493Z,7.03
2019-04-04T11:37:24.054Z,7.00
2019-04-04T11:39:56.458Z,7.07
2019-04-04T11:42:28.829Z,6.93
2019-04-04T11:45:01.027Z,7.27
2019-04-04T11:47:34.561Z,7.30
2019-04-04T11:50:06.939Z,7.00
2019-04-04T11:52:39.200Z,6.20
2019-04-04T11:55:11.464Z,6.60
2019-04-04T11:57:43.753Z,6.07
2019-04-04T12:00:16.243Z,6.50
2019-04-04T12:02:48.520Z,7.83
2019-04-04T12:05:20.780Z,6.80
2019-04-04T12:07:53.066Z,6.50
2019-04-04T12:10:27.290Z,6.63
2019-04-04T12:13:00.591Z,7.07
2019-04-04T12:15:33.431Z,6.03
2019-04-04T12:18:05.888Z,6.70
2019-04-04T12:20:39.228Z,6.20
2019-04-04T12:23:11.714Z,6.17
2019-04-04T12:25:44.124Z,7.00
2019-04-04T12:28:16.710Z,6.07
2019-04-04T12:30:49.003Z,5.77
2019-04-04T12:33:21.291Z,6.47
2019-04-04T12:35:53.761Z,6.57
2019-04-04T12:38:26.041Z,5.93
2019-04-04T12:40:58.316Z,6.30
2019-04-04T12:43:30.610Z,5.60
2019-04-04T12:46:03.048Z,5.43
2019-04-04T12:48:35.613Z,5.33
2019-04-04T12:51:07.912Z,5.90
2019-04-04T12:53:41.243Z,5.70
2019-04-04T12:56:13.716Z,6.60
2019-04-04T12:58:45.953Z,5.83
2019-04-04T13:01:21.116Z,5.63
2019-04-04T13:03:52.512Z,5.27
2019-04-04T13:06:25.953Z,6.47
2019-04-04T13:08:58.337Z,6.63
2019-04-04T13:11:32.168Z,5.97
2019-04-04T13:14:06.110Z,5.60
2019-04-04T13:16:38.309Z,6.30
2019-04-04T13:19:12.603Z,6.17
2019-04-04T13:21:44.961Z,5.47
2019-04-04T13:24:17.231Z,5.47
2019-04-04T13:26:52.860Z,6.60
2019-04-04T13:29:25.271Z,6.43
2019-04-04T13:31:57.919Z,5.87
2019-04-04T13:34:30.236Z,6.13
2019-04-04T13:37:02.513Z,5.83
2019-04-04T13:39:34.910Z,6.70
2019-04-04T13:42:07.231Z,5.70
2019-04-04T13:44:39.737Z,4.97
2019-04-04T13:47:12.308Z,5.50
2019-04-04T13:49:45.071Z,5.10
2019-04-04T13:52:17.674Z,5.83
2019-04-04T13:54:50.999Z,5.30
2019-04-04T13:57:23.415Z,5.57
2019-04-04T13:59:55.738Z,4.63
2019-04-04T14:02:28.030Z,5.10
2019-04-04T14:05:09.724Z,5.00
2019-04-04T14:07:34.883Z,4.83
2019-04-04T14:10:08.582Z,4.93
2019-04-04T14:12:40.910Z,5.40
2019-04-04T14:15:13.222Z,5.20
2019-04-04T14:17:45.543Z,5.27
2019-04-04T14:20:17.919Z,5.33
2019-04-04T14:22:51.381Z,5.23
2019-04-04T14:25:29.533Z,4.77
2019-04-04T14:28:02.255Z,5.27
2019-04-04T14:30:34.509Z,5.50
2019-04-04T14:33:06.803Z,5.37
2019-04-04T14:35:39.521Z,5.20
2019-04-04T14:38:12.180Z,5.87
2019-04-04T14:40:44.457Z,5.93
2019-04-04T14:43:16.512Z,6.13
2019-04-04T14:45:48.801Z,6.70
2019-04-04T14:48:21.349Z,6.03
2019-04-04T14:50:54.511Z,5.37
2019-04-04T14:53:27.107Z,6.73
2019-04-04T14:55:59.794Z,6.43
2019-04-04T14:58:32.192Z,6.73
2019-04-04T15:01:04.535Z,6.47
2019-04-04T15:03:37.316Z,6.60
2019-04-04T15:06:10.257Z,6.30
2019-04-04T15:08:42.821Z,6.63
2019-04-04T15:11:23.875Z,6.33
2019-04-04T15:13:49.522Z,5.60
2019-04-04T15:16:21.936Z,6.10
2019-04-04T15:18:54.832Z,5.70
2019-04-04T15:21:27.207Z,6.07
2019-04-04T15:23:59.458Z,6.40
2019-04-04T15:26:31.709Z,6.67
2019-04-04T15:29:04.196Z,6.60
2019-04-04T15:31:37.658Z,7.00
2019-04-04T15:34:10.118Z,7.27
2019-04-04T15:36:42.425Z,6.30
2019-04-04T15:39:15.948Z,6.30
2019-04-04T15:41:48.703Z,6.70
2019-04-04T15:44:20.798Z,6.37
2019-04-04T15:46:53.318Z,6.67
2019-04-04T15:49:25.561Z,7.03
2019-04-04T15:51:59.590Z,6.50
2019-04-04T15:54:31.915Z,6.90
2019-04-04T15:57:04.187Z,6.83
2019-04-04T15:59:36.561Z,7.27
2019-04-04T16:02:09.190Z,8.77
2019-04-04T16:04:41.463Z,8.40
2019-04-04T16:07:14.152Z,8.43
2019-04-04T16:09:47.213Z,9.47
2019-04-04T16:12:19.873Z,8.70
2019-04-04T16:14:52.297Z,8.43
2019-04-04T16:17:24.710Z,8.17
2019-04-04T16:19:58.071Z,8.27
2019-04-04T16:22:30.612Z,6.90
2019-04-04T16:25:03.155Z,7.67
2019-04-04T16:27:35.420Z,7.60
2019-04-04T16:30:08.386Z,7.17
2019-04-04T16:32:41.813Z,8.43
2019-04-04T16:35:14.053Z,7.37
2019-04-04T16:37:46.522Z,7.20
2019-04-04T16:40:18.847Z,6.03
2019-04-04T16:42:51.291Z,6.20
2019-04-04T16:45:23.637Z,6.90
2019-04-04T16:47:55.864Z,7.27
2019-04-04T16:50:28.211Z,6.90
2019-04-04T16:53:00.586Z,6.73
2019-04-04T16:55:32.930Z,6.57
2019-04-04T16:58:05.222Z,7.37
2019-04-04T17:00:37.759Z,7.70
2019-04-04T17:03:10.023Z,6.97
2019-04-04T17:05:42.269Z,7.00
2019-04-04T17:08:14.610Z,7.60
2019-04-04T17:10:46.965Z,7.40
2019-04-04T17:13:19.201Z,8.07
2019-04-04T17:15:51.487Z,7.47
2019-04-04T17:18:23.802Z,7.83
2019-04-04T17:20:56.032Z,9.13
2019-04-04T17:23:28.336Z,7.80
2019-04-04T17:26:00.882Z,8.43
2019-04-04T17:28:33.321Z,8.63
2019-04-04T17:31:07.723Z,8.00
2019-04-04T17:33:40.042Z,7.80
2019-04-04T17:36:12.400Z,8.17
2019-04-04T17:38:45.291Z,8.77
2019-04-04T17:41:17.593Z,8.00
2019-04-04T17:43:49.905Z,7.77
2019-04-04T17:46:22.277Z,8.50
2019-04-04T17:48:54.397Z,9.03
2019-04-04T17:51:27.401Z,9.60
2019-04-04T17:54:00.394Z,9.23
2019-04-04T17:56:33.092Z,12.97
2019-04-04T17:59:05.434Z,14.23
2019-04-04T18:01:37.666Z,15.57
2019-04-04T18:04:10.076Z,14.77
2019-04-04T18:06:43.444Z,16.17
2019-04-04T18:09:15.945Z,16.27
2019-04-04T18:11:48.310Z,17.50
2019-04-04T18:14:22.161Z,17.07
2019-04-04T18:16:54.528Z,19.80
2019-04-04T18:19:27.027Z,19.77
2019-04-04T18:22:00.151Z,19.97
2019-04-04T18:24:32.468Z,20.40
2019-04-04T18:27:04.991Z,20.60
2019-04-04T18:29:38.306Z,20.30
2019-04-04T18:32:11.058Z,20.73
2019-04-04T18:34:45.232Z,21.80
2019-04-04T18:37:17.819Z,19.63
2019-04-04T18:39:50.047Z,19.13
2019-04-04T18:42:23.323Z,18.47
2019-04-04T18:44:55.572Z,17.57
2019-04-04T18:47:27.950Z,19.07
2019-04-04T18:50:00.257Z,17.57
2019-04-04T18:52:32.960Z,17.47
2019-04-04T18:55:05.315Z,17.17
2019-04-04T18:57:37.632Z,17.10
2019-04-04T19:00:10.096Z,16.57
2019-04-04T19:02:42.442Z,16.73
2019-04-04T19:05:14.853Z,16.43
2019-04-04T19:07:48.163Z,15.70
2019-04-04T19:10:20.639Z,15.83
2019-04-04T19:13:04.855Z,15.37
2019-04-04T19:15:27.186Z,15.30
2019-04-04T19:17:59.575Z,15.33
2019-04-04T19:20:33.510Z,15.97
2019-04-04T19:23:06.370Z,15.50
2019-04-04T19:25:38.715Z,15.33
2019-04-04T19:28:11.117Z,15.70
2019-04-04T19:30:43.493Z,16.07
2019-04-04T19:33:16.274Z,15.73
2019-04-04T19:35:48.491Z,16.30
2019-04-04T19:38:20.937Z,14.83
2019-04-04T19:40:53.236Z,16.73
2019-04-04T19:43:25.481Z,15.60
2019-04-04T19:45:57.777Z,15.30
2019-04-04T19:48:30.034Z,16.53
2019-04-04T19:51:02.315Z,17.10
2019-04-04T19:53:35.903Z,16.67
2019-04-04T19:56:08.138Z,16.97
2019-04-04T19:58:40.482Z,17.07
2019-04-04T20:01:12.803Z,17.47
2019-04-04T20:03:44.987Z,18.50
2019-04-04T20:06:17.380Z,17.83
2019-04-04T20:08:53.305Z,18.67
2019-04-04T20:11:23.824Z,17.93
2019-04-04T20:13:56.032Z,17.33
2019-04-04T20:16:30.459Z,18.60
2019-04-04T20:19:02.684Z,19.47
2019-04-04T20:21:37.230Z,18.63
2019-04-04T20:24:09.444Z,19.70
2019-04-04T20:26:41.992Z,17.97
2019-04-04T20:29:14.144Z,19.33
2019-04-04T20:31:46.512Z,19.27
2019-04-04T20:34:20.840Z,20.77
2019-04-04T20:36:53.147Z,19.43
2019-04-04T20:39:25.384Z,21.03
2019-04-04T20:41:57.642Z,20.03
2019-04-04T20:44:30.006Z,20.00
2019-04-04T20:47:02.471Z,20.27
2019-04-04T20:49:34.757Z,22.13
2019-04-04T20:52:07.098Z,21.37
2019-04-04T20:54:39.497Z,21.10
2019-04-04T20:57:11.720Z,21.90
2019-04-04T20:59:44.103Z,22.37
2019-04-04T21:02:16.370Z,22.23
2019-04-04T21:04:48.704Z,23.27
2019-04-04T21:07:20.972Z,22.40
2019-04-04T21:09:53.387Z,24.63
2019-04-04T21:12:25.823Z,23.00
2019-04-04T21:14:58.099Z,24.93
2019-04-04T21:17:30.446Z,23.93
2019-04-04T21:20:02.838Z,23.83
2019-04-04T21:22:36.966Z,25.47
2019-04-04T21:25:09.966Z,24.37
2019-04-04T21:27:42.214Z,24.80
2019-04-04T21:30:14.471Z,24.83
2019-04-04T21:32:46.721Z,24.63
2019-04-04T21:35:19.451Z,26.23
2019-04-04T21:37:51.694Z,25.47
2019-04-04T21:40:24.069Z,24.47
2019-04-04T21:42:56.326Z,26.53
2019-04-04T21:45:28.564Z,25.83
2019-04-04T21:48:01.107Z,27.43
2019-04-04T21:50:33.454Z,24.57
2019-04-04T21:53:05.721Z,25.33
2019-04-04T21:55:38.083Z,27.00
2019-04-04T21:58:10.436Z,26.13
2019-04-04T22:00:42.873Z,24.60
2019-04-04T22:03:16.830Z,26.73
2019-04-04T22:05:49.268Z,26.27
2019-04-04T22:08:21.613Z,27.23
2019-04-04T22:10:53.917Z,27.00
2019-04-04T22:13:26.314Z,26.70
2019-04-04T22:15:58.626Z,26.43
2019-04-04T22:18:31.118Z,27.97
2019-04-04T22:21:03.421Z,26.37
2019-04-04T22:23:35.910Z,27.13
2019-04-04T22:26:08.220Z,26.83
2019-04-04T22:28:40.480Z,27.50
2019-04-04T22:31:12.852Z,28.57
2019-04-04T22:33:46.170Z,27.30
2019-04-04T22:36:18.645Z,28.97
2019-04-04T22:38:51.512Z,28.27
2019-04-04T22:41:24.081Z,27.87
2019-04-04T22:44:03.325Z,28.27
2019-04-04T22:46:30.518Z,28.77
2019-04-04T22:49:02.772Z,28.77
2019-04-04T22:51:35.048Z,29.70
2019-04-04T22:54:09.657Z,28.07
2019-04-04T22:56:41.910Z,28.57
2019-04-04T22:59:14.180Z,29.47
2019-04-04T23:01:46.483Z,28.40
2019-04-04T23:04:18.801Z,26.93
2019-04-04T23:06:51.184Z,27.20
2019-04-04T23:09:23.583Z,26.87
2019-04-04T23:11:56.057Z,27.33
2019-04-04T23:14:28.722Z,26.50
2019-04-04T23:17:01.176Z,26.87
2019-04-04T23:19:33.776Z,25.43
2019-04-04T23:22:06.342Z,24.43
2019-04-04T23:24:38.546Z,25.17
2019-04-04T23:27:10.891Z,26.73
2019-04-04T23:29:43.183Z,25.07
2019-04-04T23:32:15.504Z,24.47
2019-04-04T23:34:47.798Z,23.97
2019-04-04T23:37:20.022Z,22.83
2019-04-04T23:39:52.325Z,21.43
2019-04-04T23:42:24.889Z,22.57
2019-04-04T23:45:01.065Z,23.03
2019-04-04T23:47:41.946Z,21.27
2019-04-04T23:50:05.139Z,21.53
2019-04-04T23:52:38.535Z,20.17
2019-04-04T23:55:10.781Z,19.43
2019-04-04T23:57:42.994Z,18.37
